createdAt,value
2022-11-05T00:00:16.915Z,5.90
2022-11-05T00:03:02.297Z,5.00
2022-11-05T00:06:09.136Z,5.20
2022-11-05T00:09:04.003Z,5.80
2022-11-05T00:11:51.552Z,6.10
2022-11-05T00:14:36.973Z,6.10
2022-11-05T00:17:04.864Z,5.70
2022-11-05T00:19:32.618Z,6.23
2022-11-05T00:22:20.380Z,5.90
2022-11-05T00:25:06.931Z,5.27
2022-11-05T00:27:35.479Z,5.40
2022-11-05T00:30:08.010Z,4.93
2022-11-05T00:32:40.219Z,6.10
2022-11-05T00:35:08.859Z,5.80
2022-11-05T00:37:36.991Z,5.53
2022-11-05T00:40:07.728Z,5.07
2022-11-05T00:42:53.485Z,4.70
2022-11-05T00:45:22.014Z,4.83
2022-11-05T00:48:07.311Z,4.40
2022-11-05T00:50:35.322Z,4.50
2022-11-05T00:53:03.807Z,4.20
2022-11-05T00:55:37.990Z,4.20
2022-11-05T00:58:08.162Z,4.03
2022-11-05T01:00:38.527Z,3.93
2022-11-05T01:03:09.132Z,3.77
2022-11-05T01:05:41.251Z,3.90
2022-11-05T01:08:09.943Z,3.97
2022-11-05T01:10:46.291Z,4.43
2022-11-05T01:13:15.706Z,4.37
2022-11-05T01:15:44.244Z,4.70
2022-11-05T01:18:12.390Z,4.10
2022-11-05T01:20:40.894Z,3.80
2022-11-05T01:23:13.338Z,4.17
2022-11-05T01:25:41.883Z,3.97
2022-11-05T01:28:11.203Z,4.37
2022-11-05T01:30:39.556Z,4.13
2022-11-05T01:33:09.932Z,3.17
2022-11-05T01:35:37.911Z,4.60
2022-11-05T01:38:05.689Z,4.00
2022-11-05T01:40:33.634Z,3.73
2022-11-05T01:43:01.446Z,3.67
2022-11-05T01:45:32.777Z,3.60
2022-11-05T01:48:06.015Z,3.50
2022-11-05T01:50:43.034Z,3.93
2022-11-05T01:53:19.901Z,4.47
2022-11-05T01:55:52.747Z,3.70
2022-11-05T01:58:25.839Z,3.53
2022-11-05T02:00:57.691Z,3.93
2022-11-05T02:03:27.172Z,3.90
2022-11-05T02:05:57.587Z,4.60
2022-11-05T02:08:37.521Z,3.60
2022-11-05T02:11:06.455Z,4.10
2022-11-05T02:13:37.383Z,3.90
2022-11-05T02:16:13.136Z,4.60
2022-11-05T02:18:50.453Z,3.73
2022-11-05T02:21:41.802Z,4.40
2022-11-05T02:24:44.662Z,4.40
2022-11-05T02:27:21.159Z,3.70
2022-11-05T02:30:26.567Z,4.20
2022-11-05T02:33:27.938Z,4.43
2022-11-05T02:36:15.866Z,3.30
2022-11-05T02:38:54.272Z,4.03
2022-11-05T02:41:26.540Z,4.57
2022-11-05T02:44:08.046Z,4.00
2022-11-05T02:46:47.384Z,4.83
2022-11-05T02:49:27.437Z,4.73
2022-11-05T02:51:58.909Z,3.90
2022-11-05T02:54:33.935Z,3.83
2022-11-05T02:57:05.064Z,3.60
2022-11-05T02:59:32.887Z,4.20
2022-11-05T03:02:04.388Z,4.73
2022-11-05T03:04:33.022Z,4.03
2022-11-05T03:07:27.267Z,4.87
2022-11-05T03:10:10.432Z,4.90
2022-11-05T03:12:48.404Z,4.23
2022-11-05T03:15:27.410Z,4.90
2022-11-05T03:18:07.691Z,4.60
2022-11-05T03:20:41.178Z,5.00
2022-11-05T03:23:15.215Z,4.83
2022-11-05T03:25:49.474Z,4.50
2022-11-05T03:28:22.982Z,5.03
2022-11-05T03:30:53.345Z,5.20
2022-11-05T03:33:27.180Z,5.10
2022-11-05T03:35:58.645Z,4.60
2022-11-05T03:38:30.066Z,5.60
2022-11-05T03:41:02.467Z,5.00
2022-11-05T03:43:36.295Z,4.90
2022-11-05T03:46:10.677Z,5.33
2022-11-05T03:48:48.279Z,4.90
2022-11-05T03:51:25.748Z,4.80
2022-11-05T03:53:57.802Z,5.20
2022-11-05T03:56:34.110Z,4.80
2022-11-05T03:59:03.707Z,5.03
2022-11-05T04:01:32.275Z,5.27
2022-11-05T04:04:01.646Z,5.87
2022-11-05T04:06:48.990Z,4.60
2022-11-05T04:09:34.280Z,4.50
2022-11-05T04:12:19.636Z,4.60
2022-11-05T04:14:47.524Z,6.00
2022-11-05T04:17:14.491Z,5.00
2022-11-05T04:20:02.713Z,4.70
2022-11-05T04:22:50.424Z,5.70
2022-11-05T04:25:20.181Z,5.80
2022-11-05T04:27:48.095Z,4.80
2022-11-05T04:30:20.416Z,4.93
2022-11-05T04:33:03.878Z,5.00
2022-11-05T04:35:35.443Z,4.47
2022-11-05T04:38:03.850Z,5.00
2022-11-05T04:40:31.734Z,5.20
2022-11-05T04:42:59.935Z,5.17
2022-11-05T04:45:30.517Z,5.33
2022-11-05T04:47:58.304Z,4.43
2022-11-05T04:50:28.603Z,5.20
2022-11-05T04:52:58.014Z,5.73
2022-11-05T04:55:26.673Z,4.70
2022-11-05T04:57:55.384Z,4.80
2022-11-05T05:00:24.623Z,4.77
2022-11-05T05:02:52.394Z,4.83
2022-11-05T05:05:21.210Z,5.17
2022-11-05T05:07:49.046Z,5.37
2022-11-05T05:10:18.611Z,4.60
2022-11-05T05:12:46.363Z,4.93
2022-11-05T05:15:14.226Z,4.80
2022-11-05T05:17:42.018Z,5.10
2022-11-05T05:20:27.862Z,5.03
2022-11-05T05:22:56.734Z,5.03
2022-11-05T05:25:28.219Z,5.23
2022-11-05T05:27:58.267Z,4.37
2022-11-05T05:30:26.495Z,5.00
2022-11-05T05:32:56.731Z,5.60
2022-11-05T05:35:24.602Z,4.73
2022-11-05T05:37:56.107Z,4.60
2022-11-05T05:40:27.978Z,5.13
2022-11-05T05:42:57.905Z,6.90
2022-11-05T05:45:25.720Z,4.30
2022-11-05T05:47:55.914Z,4.57
2022-11-05T05:50:23.910Z,5.80
2022-11-05T05:52:53.152Z,4.30
2022-11-05T05:55:20.989Z,5.10
2022-11-05T05:57:50.155Z,5.07
2022-11-05T06:00:20.106Z,4.93
2022-11-05T06:02:47.979Z,5.30
2022-11-05T06:05:16.208Z,4.10
2022-11-05T06:07:44.016Z,5.20
2022-11-05T06:10:11.928Z,5.33
2022-11-05T06:12:39.776Z,5.23
2022-11-05T06:15:09.635Z,5.07
2022-11-05T06:17:37.541Z,5.30
2022-11-05T06:20:07.906Z,5.27
2022-11-05T06:22:35.748Z,5.93
2022-11-05T06:25:03.578Z,4.93
2022-11-05T06:27:31.412Z,5.43
2022-11-05T06:29:59.327Z,5.20
2022-11-05T06:32:28.636Z,5.50
2022-11-05T06:34:56.464Z,6.23
2022-11-05T06:37:27.761Z,6.37
2022-11-05T06:39:57.060Z,5.50
2022-11-05T06:42:25.436Z,5.93
2022-11-05T06:44:53.238Z,6.40
2022-11-05T06:47:21.132Z,5.73
2022-11-05T06:49:50.578Z,5.90
2022-11-05T06:52:18.689Z,6.20
2022-11-05T06:54:46.742Z,6.40
2022-11-05T06:57:14.545Z,6.27
2022-11-05T06:59:43.014Z,6.60
2022-11-05T07:02:13.965Z,6.77
2022-11-05T07:04:42.773Z,7.57
2022-11-05T07:07:12.000Z,6.30
2022-11-05T07:09:42.957Z,6.93
2022-11-05T07:12:13.012Z,6.63
2022-11-05T07:14:42.946Z,7.50
2022-11-05T07:17:18.530Z,7.60
2022-11-05T07:19:46.441Z,6.53
2022-11-05T07:22:17.646Z,6.77
2022-11-05T07:24:47.178Z,7.00
2022-11-05T07:27:15.451Z,6.67
2022-11-05T07:29:43.293Z,8.07
2022-11-05T07:32:11.272Z,6.90
2022-11-05T07:34:39.051Z,7.90
2022-11-05T07:37:06.899Z,7.30
2022-11-05T07:39:36.017Z,7.87
2022-11-05T07:42:04.334Z,7.80
2022-11-05T07:44:34.908Z,6.77
2022-11-05T07:47:04.105Z,8.07
2022-11-05T07:49:34.085Z,7.40
2022-11-05T07:52:01.869Z,7.90
2022-11-05T07:54:29.810Z,7.90
2022-11-05T07:56:58.899Z,8.33
2022-11-05T07:59:26.808Z,8.53
2022-11-05T08:01:54.779Z,9.07
2022-11-05T08:04:22.828Z,10.30
2022-11-05T08:06:50.577Z,8.80
2022-11-05T08:09:18.490Z,9.43
2022-11-05T08:11:46.320Z,10.40
2022-11-05T08:14:15.491Z,9.10
2022-11-05T08:16:43.437Z,10.57
2022-11-05T08:19:11.336Z,8.80
2022-11-05T08:21:39.137Z,9.30
2022-11-05T08:24:07.677Z,9.13
2022-11-05T08:26:35.522Z,9.17
2022-11-05T08:29:03.363Z,9.80
2022-11-05T08:31:32.671Z,9.90
2022-11-05T08:34:02.649Z,9.80
2022-11-05T08:36:30.821Z,10.00
2022-11-05T08:38:58.748Z,8.10
2022-11-05T08:41:26.678Z,9.00
2022-11-05T08:43:56.818Z,8.97
2022-11-05T08:46:27.156Z,9.27
2022-11-05T08:48:58.954Z,8.73
2022-11-05T08:51:26.947Z,9.00
2022-11-05T08:53:54.818Z,8.90
2022-11-05T08:56:23.201Z,8.33
2022-11-05T08:58:51.181Z,8.00
2022-11-05T09:01:19.211Z,10.07
2022-11-05T09:03:51.744Z,8.80
2022-11-05T09:06:23.130Z,7.50
2022-11-05T09:08:51.316Z,9.30
2022-11-05T09:11:21.742Z,8.43
2022-11-05T09:13:49.694Z,8.53
2022-11-05T09:16:21.532Z,9.10
2022-11-05T09:18:50.161Z,8.50
2022-11-05T09:21:18.411Z,8.97
2022-11-05T09:23:49.742Z,7.50
2022-11-05T09:26:17.674Z,9.07
2022-11-05T09:28:45.614Z,7.80
2022-11-05T09:31:13.779Z,7.73
2022-11-05T09:33:42.428Z,8.63
2022-11-05T09:36:12.476Z,9.40
2022-11-05T09:38:40.353Z,8.37
2022-11-05T09:41:16.561Z,7.90
2022-11-05T09:43:47.827Z,8.00
2022-11-05T09:46:21.398Z,7.90
2022-11-05T09:48:53.362Z,8.57
2022-11-05T09:51:24.068Z,9.30
2022-11-05T09:53:53.493Z,10.50
2022-11-05T09:56:27.260Z,8.87
2022-11-05T09:58:59.698Z,8.80
2022-11-05T10:01:32.815Z,8.97
2022-11-05T10:04:06.507Z,7.90
2022-11-05T10:06:34.747Z,8.10
2022-11-05T10:09:06.755Z,8.60
2022-11-05T10:11:42.279Z,40.37
2022-11-05T10:14:17.823Z,16.53
2022-11-05T10:16:51.402Z,10.70
2022-11-05T10:19:24.958Z,8.83
2022-11-05T10:22:11.238Z,7.70
2022-11-05T10:24:42.948Z,7.33
2022-11-05T10:27:17.437Z,7.67
2022-11-05T10:29:49.345Z,7.13
2022-11-05T10:32:26.204Z,7.50
2022-11-05T10:34:57.283Z,7.57
2022-11-05T10:37:26.279Z,6.80
2022-11-05T10:39:54.935Z,8.10
2022-11-05T10:42:47.877Z,7.03
2022-11-05T10:45:32.773Z,7.13
2022-11-05T10:48:21.902Z,6.93
2022-11-05T10:50:50.016Z,7.17
2022-11-05T10:53:22.218Z,7.30
2022-11-05T10:55:52.109Z,6.87
2022-11-05T10:58:28.864Z,7.77
2022-11-05T11:01:07.863Z,7.10
2022-11-05T11:03:43.154Z,8.60
2022-11-05T11:06:22.966Z,7.73
2022-11-05T11:08:52.234Z,6.10
2022-11-05T11:11:29.902Z,6.47
2022-11-05T11:14:05.225Z,6.43
2022-11-05T11:16:39.340Z,6.97
2022-11-05T11:19:25.720Z,6.73
2022-11-05T11:22:13.376Z,5.90
2022-11-05T11:24:43.394Z,6.30
2022-11-05T11:27:15.675Z,6.40
2022-11-05T11:29:50.008Z,7.10
2022-11-05T11:32:20.538Z,5.50
2022-11-05T11:34:52.641Z,5.93
2022-11-05T11:37:26.589Z,7.20
2022-11-05T11:39:58.132Z,5.93
2022-11-05T11:42:31.306Z,5.30
2022-11-05T11:45:05.488Z,6.07
2022-11-05T11:47:34.365Z,6.70
2022-11-05T11:50:05.436Z,6.93
2022-11-05T11:52:37.763Z,6.30
2022-11-05T11:55:19.966Z,6.10
2022-11-05T11:57:50.056Z,6.33
2022-11-05T12:00:21.175Z,6.03
2022-11-05T12:03:12.654Z,7.43
2022-11-05T12:05:46.175Z,6.77
2022-11-05T12:08:27.157Z,6.73
2022-11-05T12:11:02.939Z,6.70
2022-11-05T12:14:02.090Z,6.60
2022-11-05T12:16:52.034Z,5.70
2022-11-05T12:19:37.444Z,6.40
2022-11-05T12:22:22.493Z,6.10
2022-11-05T12:25:03.284Z,6.60
2022-11-05T12:27:51.659Z,5.40
2022-11-05T12:30:21.511Z,5.50
2022-11-05T12:33:04.932Z,6.33
2022-11-05T12:35:47.399Z,5.97
2022-11-05T12:38:28.058Z,5.67
2022-11-05T12:41:12.701Z,5.17
2022-11-05T12:43:57.297Z,5.27
2022-11-05T12:46:33.946Z,5.90
2022-11-05T12:49:30.812Z,5.30
2022-11-05T12:52:12.868Z,5.40
2022-11-05T12:54:54.015Z,5.47
2022-11-05T12:57:24.107Z,6.60
2022-11-05T12:59:57.869Z,4.33
2022-11-05T13:02:30.227Z,4.67
2022-11-05T13:05:08.018Z,5.30
2022-11-05T13:07:40.115Z,5.30
2022-11-05T13:10:19.440Z,5.00
2022-11-05T13:13:01.220Z,4.73
2022-11-05T13:15:33.693Z,4.73
2022-11-05T13:18:06.539Z,4.87
2022-11-05T13:20:40.710Z,4.03
2022-11-05T13:23:17.353Z,4.60
2022-11-05T13:25:52.088Z,4.20
2022-11-05T13:28:28.790Z,4.83
2022-11-05T13:31:01.490Z,4.70
2022-11-05T13:33:34.296Z,4.10
2022-11-05T13:36:26.031Z,4.60
2022-11-05T13:39:03.574Z,4.87
2022-11-05T13:41:44.183Z,5.73
2022-11-05T13:44:45.434Z,4.27
2022-11-05T13:47:42.864Z,4.40
2022-11-05T13:50:33.848Z,4.07
2022-11-05T13:53:24.607Z,4.90
2022-11-05T13:56:01.023Z,3.60
2022-11-05T13:59:00.290Z,3.40
2022-11-05T14:01:45.188Z,3.63
2022-11-05T14:04:26.782Z,3.67
2022-11-05T14:06:56.541Z,3.33
2022-11-05T14:09:27.871Z,2.80
2022-11-05T14:11:58.860Z,2.73
2022-11-05T14:14:30.751Z,2.20
2022-11-05T14:17:17.872Z,2.10
2022-11-05T14:20:08.619Z,2.80
2022-11-05T14:22:39.628Z,1.83
2022-11-05T14:25:45.334Z,4.13
2022-11-05T14:28:40.445Z,1.60
2022-11-05T14:31:40.983Z,2.20
2022-11-05T14:34:24.821Z,1.80
2022-11-05T14:37:24.726Z,2.30
2022-11-05T14:39:54.302Z,2.20
2022-11-05T14:42:26.778Z,2.10
2022-11-05T14:45:07.273Z,1.97
2022-11-05T15:04:12.949Z,1.70
2022-11-05T15:07:14.544Z,2.20
2022-11-05T15:09:50.356Z,1.47
2022-11-05T15:12:23.001Z,1.30
2022-11-05T15:14:58.310Z,1.37
2022-11-05T15:17:34.634Z,1.53
2022-11-05T15:20:10.788Z,1.57
2022-11-05T15:22:45.165Z,1.33
2022-11-05T15:25:19.580Z,1.00
2022-11-05T15:28:01.775Z,1.20
2022-11-05T15:30:31.371Z,1.20
2022-11-05T15:33:10.711Z,1.30
2022-11-05T15:35:47.934Z,1.17
2022-11-05T15:38:34.407Z,1.40
2022-11-05T15:41:05.272Z,1.80
2022-11-05T15:43:34.692Z,1.73
2022-11-05T15:46:08.545Z,3.37
2022-11-05T15:48:38.327Z,2.30
2022-11-05T15:51:08.326Z,3.63
2022-11-05T15:54:24.013Z,3.03
2022-11-05T15:56:49.873Z,3.27
2022-11-05T15:59:20.600Z,2.60
2022-11-05T16:01:51.392Z,3.10
2022-11-05T16:04:23.456Z,2.73
2022-11-05T16:06:59.858Z,2.47
2022-11-05T16:09:38.497Z,3.17
2022-11-05T16:12:25.105Z,3.10
2022-11-05T16:15:20.912Z,3.30
2022-11-05T16:17:54.628Z,3.00
2022-11-05T16:20:30.383Z,3.07
2022-11-05T16:23:01.313Z,9.23
2022-11-05T16:25:39.550Z,4.70
2022-11-05T16:28:23.219Z,2.93
2022-11-05T16:30:57.459Z,2.00
2022-11-05T16:33:28.206Z,2.90
2022-11-05T16:36:00.248Z,2.10
2022-11-05T16:38:29.483Z,2.40
2022-11-05T16:41:00.336Z,2.20
2022-11-05T16:43:29.082Z,2.33
2022-11-05T16:46:00.753Z,2.03
2022-11-05T16:48:29.552Z,2.50
2022-11-05T16:50:58.611Z,2.60
2022-11-05T16:53:27.124Z,2.60
2022-11-05T16:55:56.599Z,2.40
2022-11-05T16:58:28.043Z,2.63
2022-11-05T17:01:01.696Z,2.80
2022-11-05T17:03:34.577Z,2.53
2022-11-05T17:06:04.730Z,3.00
2022-11-05T17:08:33.230Z,2.60
2022-11-05T17:11:03.093Z,3.63
2022-11-05T17:13:33.317Z,3.33
2022-11-05T17:16:02.169Z,3.67
2022-11-05T17:18:32.089Z,3.70
2022-11-05T17:21:00.234Z,3.50
2022-11-05T17:23:28.834Z,3.47
2022-11-05T17:26:03.045Z,3.13
2022-11-05T17:28:34.347Z,4.00
2022-11-05T17:31:05.849Z,2.83
2022-11-05T17:33:34.984Z,3.63
2022-11-05T17:36:08.886Z,3.07
2022-11-05T17:38:37.335Z,3.67
2022-11-05T17:41:14.099Z,3.30
2022-11-05T17:43:46.884Z,3.87
2022-11-05T17:46:18.963Z,3.07
2022-11-05T17:48:52.538Z,3.20
2022-11-05T17:51:21.936Z,3.57
2022-11-05T17:53:50.966Z,3.90
2022-11-05T17:56:33.812Z,4.70
2022-11-05T17:59:04.882Z,4.10
2022-11-05T18:01:36.051Z,4.03
2022-11-05T18:04:08.944Z,5.90
2022-11-05T18:06:42.158Z,5.30
2022-11-05T18:09:11.502Z,5.80
2022-11-05T18:11:40.558Z,5.30
2022-11-05T18:14:11.342Z,6.60
2022-11-05T18:16:39.946Z,6.40
2022-11-05T18:19:08.414Z,7.37
2022-11-05T18:21:37.106Z,6.93
2022-11-05T18:24:06.106Z,7.50
2022-11-05T18:26:37.553Z,7.37
2022-11-05T18:29:10.448Z,8.27
2022-11-05T18:31:38.986Z,8.47
2022-11-05T18:34:07.824Z,8.10
2022-11-05T18:36:37.285Z,7.30
2022-11-05T18:39:06.654Z,9.20
2022-11-05T18:41:35.305Z,8.97
2022-11-05T18:44:05.406Z,8.30
2022-11-05T18:46:57.234Z,8.00
2022-11-05T18:49:23.502Z,8.60
2022-11-05T18:51:51.957Z,8.10
2022-11-05T18:54:21.170Z,8.27
2022-11-05T18:56:50.447Z,8.40
2022-11-05T18:59:38.633Z,9.80
2022-11-05T19:02:14.952Z,8.50
2022-11-05T19:05:00.727Z,8.60
2022-11-05T19:07:37.135Z,9.03
2022-11-05T19:10:06.343Z,8.00
2022-11-05T19:12:35.471Z,7.80
2022-11-05T19:15:05.152Z,8.27
2022-11-05T19:17:36.710Z,9.17
2022-11-05T19:20:06.627Z,8.80
2022-11-05T19:22:39.763Z,8.30
2022-11-05T19:25:10.504Z,8.37
2022-11-05T19:27:39.744Z,8.30
2022-11-05T19:30:11.787Z,8.00
2022-11-05T19:32:44.390Z,8.87
2022-11-05T19:35:15.071Z,8.77
2022-11-05T19:37:43.139Z,8.97
2022-11-05T19:40:12.045Z,9.93
2022-11-05T19:42:44.111Z,8.90
2022-11-05T19:45:38.745Z,8.23
2022-11-05T19:48:04.012Z,8.60
2022-11-05T19:50:32.443Z,6.83
2022-11-05T19:53:03.027Z,8.80
2022-11-05T19:55:31.481Z,8.03
2022-11-05T19:57:59.868Z,7.50
2022-11-05T20:00:27.762Z,8.73
2022-11-05T20:02:55.934Z,7.47
2022-11-05T20:05:27.837Z,6.40
2022-11-05T20:07:56.433Z,7.27
2022-11-05T20:10:24.822Z,7.50
2022-11-05T20:12:53.214Z,6.30
2022-11-05T20:15:24.674Z,6.80
2022-11-05T20:17:56.139Z,6.70
2022-11-05T20:20:26.043Z,7.00
2022-11-05T20:22:57.658Z,6.40
2022-11-05T20:25:25.738Z,5.30
2022-11-05T20:27:53.947Z,7.20
2022-11-05T20:30:22.303Z,6.57
2022-11-05T20:32:54.908Z,6.30
2022-11-05T20:35:23.400Z,6.97
2022-11-05T20:37:55.396Z,7.13
2022-11-05T20:40:24.227Z,6.93
2022-11-05T20:42:54.653Z,6.77
2022-11-05T20:45:22.658Z,7.30
2022-11-05T20:47:52.343Z,6.70
2022-11-05T20:50:20.727Z,8.37
2022-11-05T20:52:50.963Z,7.43
2022-11-05T20:55:25.034Z,8.23
2022-11-05T20:57:55.286Z,7.50
2022-11-05T21:00:26.004Z,8.30
2022-11-05T21:02:56.892Z,8.73
2022-11-05T21:05:25.027Z,8.87
2022-11-05T21:07:53.085Z,8.43
2022-11-05T21:10:21.150Z,7.27
2022-11-05T21:12:52.236Z,7.80
2022-11-05T21:15:24.323Z,8.33
2022-11-05T21:17:52.927Z,7.50
2022-11-05T21:20:23.090Z,8.23
2022-11-05T21:22:54.461Z,8.60
2022-11-05T21:25:26.260Z,8.50
2022-11-05T21:27:56.327Z,7.43
2022-11-05T21:30:25.068Z,8.83
2022-11-05T21:32:53.672Z,7.90
2022-11-05T21:35:21.715Z,8.10
2022-11-05T21:37:49.890Z,9.40
2022-11-05T21:40:23.363Z,9.13
2022-11-05T21:42:51.364Z,7.87
2022-11-05T21:45:23.850Z,8.80
2022-11-05T21:47:52.482Z,10.30
2022-11-05T21:50:40.795Z,8.50
2022-11-05T21:53:30.200Z,8.60
2022-11-05T21:56:17.456Z,8.50
2022-11-05T21:59:05.438Z,8.20
2022-11-05T22:01:35.271Z,8.20
2022-11-05T22:04:04.625Z,9.07
2022-11-05T22:06:34.160Z,8.50
2022-11-05T22:09:03.892Z,7.20
2022-11-05T22:11:37.082Z,7.53
2022-11-05T22:14:09.729Z,8.57
2022-11-05T22:16:40.751Z,8.90
2022-11-05T22:19:09.393Z,9.23
2022-11-05T22:21:40.398Z,7.90
2022-11-05T22:24:10.422Z,9.17
2022-11-05T22:26:41.958Z,8.97
2022-11-05T22:29:10.756Z,9.47
2022-11-05T22:31:40.544Z,9.40
2022-11-05T22:34:10.974Z,8.90
2022-11-05T22:36:39.122Z,9.17
2022-11-05T22:39:07.675Z,9.07
2022-11-05T22:41:35.655Z,9.57
2022-11-05T22:44:05.619Z,10.37
2022-11-05T22:46:35.917Z,9.43
2022-11-05T22:49:08.258Z,10.50
2022-11-05T22:51:40.464Z,10.10
2022-11-05T22:54:09.384Z,9.70
2022-11-05T22:56:39.351Z,9.43
2022-11-05T22:59:12.348Z,10.27
2022-11-05T23:01:41.010Z,9.27
2022-11-05T23:04:10.722Z,10.90
2022-11-05T23:06:56.951Z,10.80
2022-11-05T23:09:45.378Z,8.50
2022-11-05T23:12:24.292Z,10.10
2022-11-05T23:14:56.078Z,9.53
2022-11-05T23:17:44.706Z,8.97
2022-11-05T23:20:36.292Z,9.57
2022-11-05T23:23:28.023Z,9.40
2022-11-05T23:25:58.181Z,9.80
2022-11-05T23:28:26.467Z,9.67
2022-11-05T23:31:11.842Z,10.87
2022-11-05T23:33:42.039Z,9.10
2022-11-05T23:36:31.013Z,9.90
2022-11-05T23:38:59.053Z,10.23
2022-11-05T23:41:44.354Z,7.90
2022-11-05T23:44:37.784Z,9.80
2022-11-05T23:47:23.411Z,9.53
2022-11-05T23:49:51.457Z,9.90
2022-11-05T23:52:20.633Z,9.60
2022-11-05T23:54:48.578Z,10.77
2022-11-05T23:57:16.387Z,9.70
2022-11-05T23:59:46.197Z,9.20
